createdAt,value
2019-04-07T00:00:09.336Z,73.01
2019-04-07T00:02:38.549Z,72.91
2019-04-07T00:05:12.356Z,72.78
2019-04-07T00:07:38.257Z,72.27
2019-04-07T00:10:09.847Z,73.04
2019-04-07T00:12:38.618Z,72.99
2019-04-07T00:15:07.406Z,73.30
2019-04-07T00:17:36.254Z,73.29
2019-04-07T00:20:05.487Z,72.89
2019-04-07T00:22:34.539Z,73.12
2019-04-07T00:25:04.084Z,72.40
2019-04-07T00:27:33.380Z,72.35
2019-04-07T00:30:02.308Z,72.73
2019-04-07T00:32:30.865Z,72.94
2019-04-07T00:34:59.969Z,72.91
2019-04-07T00:37:28.722Z,72.84
2019-04-07T00:39:57.782Z,72.52
2019-04-07T00:42:27.412Z,73.11
2019-04-07T00:44:56.264Z,72.94
2019-04-07T00:47:24.961Z,72.82
2019-04-07T00:49:53.877Z,72.66
2019-04-07T00:52:23.667Z,73.11
2019-04-07T00:54:52.304Z,72.81
2019-04-07T00:57:21.143Z,72.98
2019-04-07T00:59:49.708Z,72.65
2019-04-07T01:02:18.478Z,73.02
2019-04-07T01:04:47.272Z,73.27
2019-04-07T01:07:16.192Z,72.81
2019-04-07T01:09:45.333Z,72.87
2019-04-07T01:12:14.120Z,72.56
2019-04-07T01:14:43.376Z,72.81
2019-04-07T01:17:12.598Z,72.70
2019-04-07T01:19:41.603Z,73.26
2019-04-07T01:22:10.175Z,73.02
2019-04-07T01:24:39.491Z,73.60
2019-04-07T01:27:08.540Z,73.31
2019-04-07T01:29:37.443Z,73.84
2019-04-07T01:32:07.150Z,73.77
2019-04-07T01:34:36.271Z,73.84
2019-04-07T01:37:05.610Z,74.42
2019-04-07T01:39:34.976Z,74.52
2019-04-07T01:42:10.024Z,74.61
2019-04-07T01:44:48.024Z,75.10
2019-04-07T01:47:25.228Z,74.96
2019-04-07T01:50:01.855Z,75.00
2019-04-07T01:52:47.026Z,75.32
2019-04-07T01:55:44.294Z,75.66
2019-04-07T01:58:48.201Z,75.79
2019-04-07T02:01:31.397Z,75.57
2019-04-07T02:04:06.021Z,75.26
2019-04-07T02:07:10.719Z,75.46
2019-04-07T02:09:57.645Z,76.16
2019-04-07T02:12:48.983Z,76.58
2019-04-07T02:15:30.036Z,76.48
2019-04-07T02:18:07.116Z,76.68
2019-04-07T02:21:03.345Z,76.74
2019-04-07T02:24:00.966Z,77.22
2019-04-07T02:26:52.402Z,77.15
2019-04-07T02:29:39.971Z,77.35
2019-04-07T02:32:29.367Z,77.45
2019-04-07T02:35:26.781Z,77.76
2019-04-07T02:38:15.079Z,77.51
2019-04-07T02:40:51.474Z,77.68
2019-04-07T02:43:34.050Z,77.95
2019-04-07T02:46:23.673Z,78.24
2019-04-07T02:48:59.162Z,78.32
2019-04-07T02:51:46.193Z,78.35
2019-04-07T02:54:33.077Z,78.57
2019-04-07T02:57:22.104Z,78.41
2019-04-07T02:59:57.906Z,78.84
2019-04-07T03:02:33.464Z,79.00
2019-04-07T03:05:24.806Z,79.29
2019-04-07T03:08:05.929Z,79.36
2019-04-07T03:11:12.547Z,79.24
2019-04-07T03:14:07.818Z,79.31
2019-04-07T03:16:42.325Z,79.81
2019-04-07T03:19:19.335Z,79.70
2019-04-07T03:21:58.388Z,79.54
2019-04-07T03:24:45.151Z,79.92
2019-04-07T03:27:32.082Z,79.71
2019-04-07T03:30:13.993Z,79.98
2019-04-07T03:33:14.257Z,80.09
2019-04-07T03:36:06.818Z,79.39
2019-04-07T03:38:55.738Z,79.44
2019-04-07T03:41:33.226Z,79.50
2019-04-07T03:44:29.166Z,79.46
2019-04-07T03:47:23.782Z,79.90
2019-04-07T03:49:57.124Z,79.40
2019-04-07T03:52:35.445Z,79.56
2019-04-07T03:55:31.093Z,79.23
2019-04-07T03:58:14.026Z,79.27
2019-04-07T04:01:30.216Z,79.35
2019-04-07T04:04:15.751Z,79.82
2019-04-07T04:07:17.830Z,80.08
2019-04-07T04:09:41.294Z,79.92
2019-04-07T04:12:17.154Z,80.32
2019-04-07T04:15:01.950Z,79.55
2019-04-07T04:17:30.845Z,79.70
2019-04-07T04:19:59.506Z,80.06
2019-04-07T04:22:29.140Z,80.49
2019-04-07T04:24:58.463Z,80.37
2019-04-07T04:27:28.090Z,79.95
2019-04-07T04:29:56.892Z,79.80
2019-04-07T04:32:25.710Z,79.72
2019-04-07T04:34:54.714Z,79.59
2019-04-07T04:37:36.087Z,79.89
2019-04-07T04:39:54.427Z,79.93
2019-04-07T04:42:25.050Z,80.15
2019-04-07T04:44:54.368Z,80.33
2019-04-07T04:47:23.255Z,80.55
2019-04-07T04:49:52.794Z,80.57
2019-04-07T04:52:22.026Z,80.75
2019-04-07T04:54:51.725Z,81.24
2019-04-07T04:57:20.766Z,82.59
2019-04-07T04:59:49.453Z,82.44
2019-04-07T05:02:18.942Z,82.25
2019-04-07T05:04:47.850Z,81.56
2019-04-07T05:07:16.830Z,81.83
2019-04-07T05:09:50.330Z,82.73
2019-04-07T05:12:16.310Z,82.29
2019-04-07T05:14:45.555Z,83.39
2019-04-07T05:17:14.321Z,82.75
2019-04-07T05:19:42.975Z,82.24
2019-04-07T05:22:12.525Z,82.05
2019-04-07T05:24:41.280Z,81.74
2019-04-07T05:27:10.599Z,80.73
2019-04-07T05:29:40.243Z,80.60
2019-04-07T05:32:08.856Z,81.01
2019-04-07T05:34:38.196Z,81.16
2019-04-07T05:37:06.800Z,81.23
2019-04-07T05:39:36.150Z,80.69
2019-04-07T05:42:05.026Z,81.71
2019-04-07T05:44:34.388Z,79.56
2019-04-07T05:49:43.655Z,79.06
2019-04-07T05:52:12.783Z,79.19
2019-04-07T05:54:41.340Z,79.77
2019-04-07T05:57:10.548Z,79.20
2019-04-07T05:59:39.891Z,79.24
2019-04-07T06:02:09.919Z,78.91
2019-04-07T06:04:38.437Z,79.20
2019-04-07T06:07:08.033Z,79.12
2019-04-07T06:09:37.265Z,78.54
2019-04-07T06:12:07.959Z,77.46
2019-04-07T06:14:36.887Z,77.33
2019-04-07T06:17:05.469Z,76.86
2019-04-07T06:19:37.360Z,76.33
2019-04-07T06:22:05.465Z,74.44
2019-04-07T06:24:35.140Z,73.86
2019-04-07T06:27:04.383Z,73.25
2019-04-07T06:29:33.399Z,73.14
2019-04-07T06:32:04.569Z,72.11
2019-04-07T06:34:32.652Z,72.44
2019-04-07T06:37:01.203Z,72.94
2019-04-07T06:39:31.953Z,72.60
2019-04-07T06:42:01.391Z,72.30
2019-04-07T06:44:30.826Z,72.32
2019-04-07T06:47:25.005Z,72.25
2019-04-07T06:50:23.302Z,71.16
2019-04-07T06:52:58.958Z,71.80
2019-04-07T06:55:46.137Z,71.35
2019-04-07T06:58:41.739Z,70.31
2019-04-07T07:01:29.651Z,70.16
2019-04-07T07:04:16.788Z,69.69
2019-04-07T07:07:00.640Z,70.45
2019-04-07T07:09:45.889Z,69.70
2019-04-07T07:12:39.114Z,70.19
2019-04-07T07:15:18.412Z,69.77
2019-04-07T07:17:59.285Z,69.90
2019-04-07T07:21:03.728Z,67.05
2019-04-07T07:23:35.445Z,65.91
2019-04-07T07:26:04.278Z,63.17
2019-04-07T07:28:33.733Z,62.31
2019-04-07T07:31:04.345Z,61.28
2019-04-07T07:33:33.443Z,56.95
2019-04-07T07:36:02.484Z,58.17
2019-04-07T07:38:32.731Z,54.79
2019-04-07T07:41:03.584Z,53.86
2019-04-07T07:43:32.419Z,54.80
2019-04-07T07:46:00.964Z,57.20
2019-04-07T07:48:30.258Z,55.27
2019-04-07T07:50:59.079Z,53.74
2019-04-07T07:53:28.593Z,52.09
2019-04-07T07:55:57.654Z,52.37
2019-04-07T07:58:30.762Z,50.21
2019-04-07T08:00:59.563Z,50.00
2019-04-07T08:03:27.307Z,50.85
2019-04-07T08:05:56.541Z,49.36
2019-04-07T08:08:25.425Z,48.17
2019-04-07T08:10:59.086Z,49.21
2019-04-07T08:13:24.836Z,51.75
2019-04-07T08:15:56.596Z,46.59
2019-04-07T08:18:23.974Z,49.28
2019-04-07T08:20:53.297Z,46.92
2019-04-07T08:23:22.062Z,46.35
2019-04-07T08:25:52.898Z,45.92
2019-04-07T08:28:21.668Z,44.91
2019-04-07T08:30:50.343Z,46.52
2019-04-07T08:33:20.131Z,45.74
2019-04-07T08:35:49.107Z,46.34
2019-04-07T08:38:19.979Z,43.73
2019-04-07T08:40:49.683Z,45.46
2019-04-07T08:43:21.359Z,42.29
2019-04-07T08:45:48.973Z,41.44
2019-04-07T08:48:19.405Z,41.55
2019-04-07T08:50:48.593Z,42.91
2019-04-07T08:53:17.332Z,40.92
2019-04-07T08:55:48.609Z,43.48
2019-04-07T08:58:24.959Z,40.16
2019-04-07T09:00:51.615Z,41.11
2019-04-07T09:03:19.730Z,41.11
2019-04-07T09:05:48.284Z,41.67
2019-04-07T09:08:17.249Z,40.71
2019-04-07T09:10:54.945Z,38.87
2019-04-07T09:13:24.082Z,37.67
2019-04-07T09:16:19.940Z,35.39
2019-04-07T09:19:06.043Z,37.48
2019-04-07T09:21:47.550Z,37.30
2019-04-07T09:24:31.399Z,36.97
2019-04-07T09:27:14.697Z,37.91
2019-04-07T09:29:58.245Z,37.91
2019-04-07T09:32:41.604Z,38.33
2019-04-07T09:35:24.047Z,33.05
2019-04-07T09:38:10.872Z,32.87
2019-04-07T09:41:17.239Z,33.78
2019-04-07T09:43:55.302Z,33.70
2019-04-07T09:46:44.775Z,33.91
2019-04-07T09:49:31.028Z,35.38
2019-04-07T09:52:18.581Z,34.21
2019-04-07T09:55:24.350Z,33.18
2019-04-07T09:58:09.222Z,30.78
2019-04-07T10:00:57.358Z,33.61
2019-04-07T10:03:51.839Z,31.67
2019-04-07T10:06:39.705Z,32.29
2019-04-07T10:09:20.330Z,32.39
2019-04-07T10:12:11.764Z,31.96
2019-04-07T10:15:03.121Z,30.60
2019-04-07T10:17:43.831Z,29.79
2019-04-07T10:20:28.590Z,28.84
2019-04-07T10:23:16.930Z,31.81
2019-04-07T10:25:56.152Z,33.91
2019-04-07T10:28:41.644Z,30.59
2019-04-07T10:31:45.269Z,32.02
2019-04-07T10:34:23.722Z,30.18
2019-04-07T10:37:10.203Z,31.07
2019-04-07T10:39:56.016Z,30.63
2019-04-07T10:42:42.161Z,31.14
2019-04-07T10:45:30.512Z,30.23
2019-04-07T10:48:34.296Z,30.24
2019-04-07T10:51:23.068Z,32.80
2019-04-07T10:54:01.572Z,31.12
2019-04-07T10:56:49.757Z,31.27
2019-04-07T10:59:27.952Z,30.42
2019-04-07T11:02:15.137Z,29.66
2019-04-07T11:05:03.338Z,30.49
2019-04-07T11:07:51.519Z,29.84
2019-04-07T11:10:34.550Z,30.64
2019-04-07T11:13:13.525Z,31.15
2019-04-07T11:16:00.319Z,31.52
2019-04-07T11:18:46.887Z,32.03
2019-04-07T11:21:53.505Z,29.38
2019-04-07T11:24:50.586Z,31.14
2019-04-07T11:27:56.616Z,30.37
2019-04-07T11:30:52.090Z,30.34
2019-04-07T11:33:41.377Z,31.12
2019-04-07T11:36:18.042Z,29.52
2019-04-07T11:39:20.536Z,28.14
2019-04-07T11:42:08.862Z,29.68
2019-04-07T11:44:51.482Z,30.76
2019-04-07T11:47:28.626Z,31.28
2019-04-07T11:50:15.585Z,29.90
2019-04-07T11:53:03.964Z,28.96
2019-04-07T11:55:51.120Z,28.66
2019-04-07T11:58:39.795Z,29.33
2019-04-07T12:01:46.074Z,29.25
2019-04-07T12:04:36.682Z,32.34
2019-04-07T12:07:25.035Z,30.27
2019-04-07T12:10:12.553Z,31.41
2019-04-07T12:12:53.857Z,30.29
2019-04-07T12:15:42.954Z,29.39
2019-04-07T12:18:30.864Z,29.69
2019-04-07T12:21:24.082Z,29.35
2019-04-07T12:24:10.585Z,27.81
2019-04-07T12:26:47.392Z,28.67
2019-04-07T12:29:35.104Z,29.14
2019-04-07T12:32:26.689Z,30.92
2019-04-07T12:35:23.672Z,32.38
2019-04-07T12:38:01.531Z,29.09
2019-04-07T12:40:38.910Z,28.37
2019-04-07T12:43:21.824Z,31.04
2019-04-07T12:46:07.159Z,30.45
2019-04-07T12:48:46.974Z,30.45
2019-04-07T12:51:41.443Z,30.85
2019-04-07T12:54:32.012Z,30.50
2019-04-07T12:57:17.688Z,30.30
2019-04-07T13:00:06.081Z,31.37
2019-04-07T13:02:53.226Z,30.70
2019-04-07T13:05:49.865Z,28.38
2019-04-07T13:08:28.618Z,28.67
2019-04-07T13:11:11.211Z,26.64
2019-04-07T13:13:49.509Z,27.71
2019-04-07T13:16:34.850Z,30.55
2019-04-07T13:19:16.378Z,30.51
2019-04-07T13:21:57.273Z,29.08
2019-04-07T13:24:39.365Z,29.00
2019-04-07T13:27:28.019Z,28.43
2019-04-07T13:30:03.240Z,29.00
2019-04-07T13:32:57.527Z,28.33
2019-04-07T13:35:34.183Z,27.78
2019-04-07T13:38:22.018Z,28.62
2019-04-07T13:41:01.834Z,29.26
2019-04-07T13:43:44.277Z,29.38
2019-04-07T13:46:35.684Z,27.14
2019-04-07T13:49:15.858Z,27.38
2019-04-07T13:52:02.458Z,28.65
2019-04-07T13:55:04.525Z,26.96
2019-04-07T13:57:50.396Z,26.64
2019-04-07T14:00:48.291Z,27.91
2019-04-07T14:03:45.276Z,28.00
2019-04-07T14:06:23.799Z,27.23
2019-04-07T14:09:06.768Z,26.32
2019-04-07T14:11:58.250Z,26.78
2019-04-07T14:14:36.217Z,26.44
2019-04-07T14:17:27.552Z,27.80
2019-04-07T14:20:15.065Z,26.14
2019-04-07T14:22:58.693Z,27.14
2019-04-07T14:25:34.616Z,27.16
2019-04-07T14:28:13.002Z,27.02
2019-04-07T14:31:09.364Z,27.11
2019-04-07T14:34:03.554Z,26.97
2019-04-07T14:36:58.946Z,25.73
2019-04-07T14:39:53.432Z,26.37
2019-04-07T14:42:36.149Z,25.44
2019-04-07T14:45:31.887Z,26.22
2019-04-07T14:48:29.353Z,25.11
2019-04-07T14:51:08.689Z,26.87
2019-04-07T14:53:51.412Z,26.73
2019-04-07T14:56:38.605Z,26.94
2019-04-07T14:59:28.438Z,26.03
2019-04-07T15:02:00.545Z,27.55
2019-04-07T15:04:51.006Z,25.99
2019-04-07T15:07:39.426Z,27.20
2019-04-07T15:10:19.919Z,26.35
2019-04-07T15:12:52.430Z,26.94
2019-04-07T15:15:21.455Z,28.04
2019-04-07T15:17:50.143Z,27.53
2019-04-07T15:20:19.599Z,27.32
2019-04-07T15:22:49.411Z,27.79
2019-04-07T15:25:18.441Z,28.21
2019-04-07T15:27:47.734Z,28.19
2019-04-07T15:30:16.972Z,27.79
2019-04-07T15:32:45.921Z,27.13
2019-04-07T15:35:15.495Z,27.91
2019-04-07T15:37:45.067Z,29.11
2019-04-07T15:40:14.060Z,28.58
2019-04-07T15:42:44.422Z,29.05
2019-04-07T15:45:13.444Z,27.67
2019-04-07T15:47:42.498Z,27.58
2019-04-07T15:50:11.723Z,28.72
2019-04-07T15:52:43.744Z,27.71
2019-04-07T15:55:11.846Z,27.80
2019-04-07T15:57:40.743Z,29.53
2019-04-07T16:00:10.079Z,29.87
2019-04-07T16:02:42.181Z,30.10
2019-04-07T16:05:10.507Z,32.23
2019-04-07T16:07:39.248Z,31.36
2019-04-07T16:10:08.505Z,31.17
2019-04-07T16:12:44.879Z,31.80
2019-04-07T16:15:08.010Z,31.59
2019-04-07T16:17:37.272Z,32.28
2019-04-07T16:20:18.821Z,32.28
2019-04-07T16:22:38.013Z,32.65
2019-04-07T16:25:08.762Z,32.71
2019-04-07T16:27:39.387Z,32.66
2019-04-07T16:30:08.689Z,32.78
2019-04-07T16:32:39.083Z,32.38
2019-04-07T16:35:12.933Z,31.72
2019-04-07T16:37:39.392Z,31.72
2019-04-07T16:40:11.467Z,32.35
2019-04-07T16:42:40.006Z,32.93
2019-04-07T16:45:11.921Z,32.75
2019-04-07T16:47:39.395Z,32.65
2019-04-07T16:50:08.729Z,33.93
2019-04-07T16:52:37.487Z,35.02
2019-04-07T16:55:28.258Z,35.88
2019-04-07T16:58:00.354Z,37.11
2019-04-07T17:00:28.294Z,37.46
2019-04-07T17:02:56.926Z,37.96
2019-04-07T17:05:25.749Z,38.69
2019-04-07T17:07:55.982Z,38.92
2019-04-07T17:10:28.739Z,39.18
2019-04-07T17:12:56.616Z,39.82
2019-04-07T17:15:26.256Z,39.98
2019-04-07T17:17:54.895Z,40.83
2019-04-07T17:20:27.211Z,40.81
2019-04-07T17:22:54.464Z,40.84
2019-04-07T17:25:23.232Z,41.14
2019-04-07T17:27:51.983Z,41.57
2019-04-07T17:30:24.387Z,41.05
2019-04-07T17:32:52.465Z,41.97
2019-04-07T17:35:21.982Z,41.58
2019-04-07T17:37:51.219Z,41.91
2019-04-07T17:40:22.677Z,42.59
2019-04-07T17:42:53.087Z,42.82
2019-04-07T17:45:56.782Z,42.44
2019-04-07T17:48:50.386Z,42.71
2019-04-07T17:51:42.214Z,42.77
2019-04-07T17:54:29.665Z,43.06
2019-04-07T17:57:23.737Z,43.53
2019-04-07T18:00:07.944Z,44.28
2019-04-07T18:02:57.811Z,44.50
2019-04-07T18:05:43.191Z,44.79
2019-04-07T18:08:29.977Z,45.25
2019-04-07T18:11:37.744Z,45.78
2019-04-07T18:14:28.356Z,46.27
2019-04-07T18:17:06.681Z,46.74
2019-04-07T18:19:45.433Z,47.40
2019-04-07T18:22:33.651Z,47.52
2019-04-07T18:25:21.649Z,47.82
2019-04-07T18:28:05.547Z,48.35
2019-04-07T18:30:52.653Z,49.07
2019-04-07T18:33:37.926Z,49.14
2019-04-07T18:36:25.727Z,49.66
2019-04-07T18:39:24.108Z,50.16
2019-04-07T18:42:21.961Z,50.89
2019-04-07T18:45:12.250Z,51.15
2019-04-07T18:47:48.262Z,51.06
2019-04-07T18:50:46.583Z,50.39
2019-04-07T18:53:33.796Z,50.22
2019-04-07T18:56:16.101Z,50.30
2019-04-07T18:59:10.002Z,49.07
2019-04-07T19:02:11.833Z,48.70
2019-04-07T19:04:52.190Z,48.79
2019-04-07T19:07:45.897Z,48.41
2019-04-07T19:10:33.468Z,48.40
2019-04-07T19:13:15.878Z,48.13
2019-04-07T19:15:55.478Z,48.00
2019-04-07T19:18:34.752Z,48.29
2019-04-07T19:21:37.630Z,47.70
2019-04-07T19:24:25.001Z,48.77
2019-04-07T19:27:17.699Z,49.32
2019-04-07T19:30:02.542Z,49.81
2019-04-07T19:32:52.650Z,48.60
2019-04-07T19:35:49.024Z,49.60
2019-04-07T19:38:27.366Z,49.70
2019-04-07T19:41:16.723Z,49.31
2019-04-07T19:43:54.359Z,50.15
2019-04-07T19:46:46.575Z,50.48
2019-04-07T19:49:41.095Z,50.58
2019-04-07T19:52:33.864Z,50.45
2019-04-07T19:55:22.763Z,50.74
2019-04-07T19:58:00.631Z,50.80
2019-04-07T20:01:01.748Z,50.81
2019-04-07T20:03:53.919Z,50.80
2019-04-07T20:06:40.018Z,51.20
2019-04-07T20:09:27.825Z,51.37
2019-04-07T20:12:08.536Z,51.29
2019-04-07T20:15:03.048Z,51.86
2019-04-07T20:17:44.068Z,51.85
2019-04-07T20:20:31.236Z,51.64
2019-04-07T20:23:22.872Z,51.77
2019-04-07T20:26:00.113Z,51.60
2019-04-07T20:28:35.852Z,51.18
2019-04-07T20:31:24.158Z,51.62
2019-04-07T20:34:02.178Z,51.16
2019-04-07T20:36:48.425Z,51.14
2019-04-07T20:39:37.262Z,51.02
2019-04-07T20:42:19.309Z,50.75
2019-04-07T20:45:15.348Z,50.88
2019-04-07T20:48:13.585Z,51.02
2019-04-07T20:50:50.912Z,50.52
2019-04-07T20:53:29.694Z,50.97
2019-04-07T20:56:13.026Z,50.73
2019-04-07T20:59:03.922Z,51.15
2019-04-07T21:02:00.788Z,51.53
2019-04-07T21:04:39.784Z,51.05
2019-04-07T21:07:19.389Z,51.45
2019-04-07T21:09:56.646Z,51.80
2019-04-07T21:12:37.053Z,51.81
2019-04-07T21:15:29.614Z,52.27
2019-04-07T21:18:23.883Z,52.38
2019-04-07T21:21:15.148Z,52.21
2019-04-07T21:23:55.261Z,52.90
2019-04-07T21:26:30.087Z,52.41
2019-04-07T21:29:11.285Z,52.79
2019-04-07T21:31:47.680Z,52.77
2019-04-07T21:34:36.435Z,52.96
2019-04-07T21:37:33.781Z,53.02
2019-04-07T21:40:32.341Z,52.84
2019-04-07T21:43:17.970Z,52.87
2019-04-07T21:46:04.914Z,53.08
2019-04-07T21:48:45.924Z,53.11
2019-04-07T21:51:26.882Z,53.23
2019-04-07T21:54:21.531Z,53.47
2019-04-07T21:57:14.026Z,53.74
2019-04-07T22:00:04.989Z,53.43
2019-04-07T22:03:05.603Z,53.33
2019-04-07T22:05:50.991Z,52.70
2019-04-07T22:08:25.535Z,53.15
2019-04-07T22:10:55.372Z,53.51
2019-04-07T22:13:24.119Z,53.73
2019-04-07T22:15:58.585Z,54.20
2019-04-07T22:18:23.665Z,54.34
2019-04-07T22:20:54.769Z,55.50
2019-04-07T22:23:23.034Z,55.40
2019-04-07T22:25:52.364Z,55.75
2019-04-07T22:28:21.084Z,56.15
2019-04-07T22:30:50.951Z,56.59
2019-04-07T22:33:23.028Z,56.61
2019-04-07T22:35:51.067Z,56.42
2019-04-07T22:38:22.928Z,56.41
2019-04-07T22:40:50.462Z,57.45
2019-04-07T22:43:20.084Z,58.38
2019-04-07T22:45:59.004Z,58.04
2019-04-07T22:48:23.563Z,58.96
2019-04-07T22:50:51.755Z,58.80
2019-04-07T22:53:22.589Z,59.67
2019-04-07T22:55:51.228Z,61.50
2019-04-07T22:58:20.175Z,60.35
2019-04-07T23:00:48.983Z,60.06
2019-04-07T23:03:17.670Z,60.79
2019-04-07T23:05:47.051Z,60.30
2019-04-07T23:08:15.596Z,59.39
2019-04-07T23:10:44.316Z,59.35
2019-04-07T23:13:13.296Z,59.47
2019-04-07T23:15:45.487Z,59.94
2019-04-07T23:18:12.599Z,60.12
2019-04-07T23:20:41.722Z,60.57
2019-04-07T23:23:10.994Z,61.47
2019-04-07T23:25:39.504Z,61.39
2019-04-07T23:28:08.243Z,60.87
2019-04-07T23:30:36.950Z,60.66
2019-04-07T23:33:06.242Z,61.74
2019-04-07T23:35:35.117Z,62.50
2019-04-07T23:38:03.765Z,61.75
2019-04-07T23:40:32.689Z,61.77
2019-04-07T23:43:01.316Z,62.32
2019-04-07T23:45:29.849Z,62.69
2019-04-07T23:47:58.773Z,62.96
2019-04-07T23:50:27.527Z,63.33
2019-04-07T23:53:00.266Z,64.19
2019-04-07T23:55:29.499Z,63.75
2019-04-07T23:57:58.035Z,63.73
